Chino, CA (91710)

11:19 PM PDT on August 03, 2015 (GMT -0700)
North Central Chino | | Change Station
CLOSE
Current Station
Personal Weather Station
Location: Chino, CA
Elevation: 732 ft
Nearby Weather Stations

Elev 732 ft 34.01 °N, 117.67 °W | Updated 2 seconds ago

Clear
Clear
71.5 °F
Feels Like 74 °F
N
0.0
Wind Variable Wind from West
Gusts 0.0 mph

Today
High -- | Low -- °F
--% Chance of Precip.
Yesterday
High -- | Low -- °F
Precip. -- in
6:03 AM 7:49 PM
Waning Gibbous, 80% visible
Pressure 29.89 in
Visibility 8.0 miles
Clouds Clear
Heat Index 74 °F
Dew Point 62 °F
Humidity 72%
Rainfall 0.00 in
Snow Depth Not available.
UV 0.0 out of 12
Pollen 4.20 out of 12
Air Quality Not available.
Flu Activity Not available.
METAR KCNO 040553Z 29004KT 8SM CLR 23/16 A2991 RMK AO2 SLP121 T02280161 10333 20228 50014

More Conditions Fewer Conditions

Pressure 29.89 in
Visibility 8.0 miles
Clouds Clear
Heat Index 74 °F
Dew Point 62 °F
Humidity 72%
Rainfall 0.00 in
Snow Depth Not available.
UV 0.0 out of 12
Pollen 4.20 out of 12
Air Quality Not available.
Flu Activity Not available.
METAR KCNO 040553Z 29004KT 8SM CLR 23/16 A2991 RMK AO2 SLP121 T02280161 10333 20228 50014

More Conditions Fewer Conditions

10-Day Weather Forecast

×

Almanac

Astronomy

Aug. 03, 2015 Rise Set
Actual Time
Civil Twilight
Nautical Twilight
Astronomical Twilight
Moon
Length of Visible Light
Length of Day
Tomorrow will be .
, % of the Moon is Illuminated

Today's Extremes

State Highs State Lows

Community

WunderPhotos

Upload Photos

1,843,870 photos uploaded!

WunderBlogs® & News

Nearby

Air Quality

  Air Quality AQ Index Pollutant
Not available.

Snow Depth

Station Depth Elevation

Earthquake Activity

City Distance Mag. Time & Date
Minimum magnitude displayed is 2.5.

Coastal Water Temperatures

Place Temperature

Stations

Nearby Weather Stations

Station Location Temp. Windchill Dew Point Humidity Wind Precip. Elev Updated Type